sensor_id;sensor_type;location;lat;lon;timestamp;temperature;humidity
47921;DHT22;33686;48.770;9.186;2023-11-19T06:17:14;11.20;99.90
47921;DHT22;33686;48.770;9.186;2023-11-19T06:19:40;11.30;99.90
47921;DHT22;33686;48.770;9.186;2023-11-19T06:22:05;11.30;99.90
47921;DHT22;33686;48.770;9.186;2023-11-19T06:24:31;11.30;99.90
47921;DHT22;33686;48.770;9.186;2023-11-19T06:26:57;11.30;99.90
47921;DHT22;33686;48.770;9.186;2023-11-19T06:29:23;11.40;99.90
47921;DHT22;33686;48.770;9.186;2023-11-19T06:31:49;11.40;99.90
47921;DHT22;33686;48.770;9.186;2023-11-19T06:34:14;11.40;99.90
47921;DHT22;33686;48.770;9.186;2023-11-19T06:36:40;11.30;99.90
47921;DHT22;33686;48.770;9.186;2023-11-19T06:39:06;11.30;99.90
47921;DHT22;33686;48.770;9.186;2023-11-19T06:41:31;11.30;99.90
47921;DHT22;33686;48.770;9.186;2023-11-19T06:43:57;11.30;99.90
47921;DHT22;33686;48.770;9.186;2023-11-19T06:46:23;11.30;99.90
47921;DHT22;33686;48.770;9.186;2023-11-19T06:48:48;11.30;99.90
47921;DHT22;33686;48.770;9.186;2023-11-19T06:51:15;11.30;99.90
47921;DHT22;33686;48.770;9.186;2023-11-19T06:53:42;11.30;99.90
47921;DHT22;33686;48.770;9.186;2023-11-19T06:59:04;11.30;99.90
47921;DHT22;33686;48.770;9.186;2023-11-19T07:01:34;11.30;99.90
47921;DHT22;33686;48.770;9.186;2023-11-19T07:04:00;11.30;99.90
47921;DHT22;33686;48.770;9.186;2023-11-19T07:06:27;11.30;99.90
47921;DHT22;33686;48.770;9.186;2023-11-19T07:08:52;11.30;99.90
47921;DHT22;33686;48.770;9.186;2023-11-19T07:11:18;11.30;99.90
47921;DHT22;33686;48.770;9.186;2023-11-19T07:13:43;11.30;99.90
47921;DHT22;33686;48.770;9.186;2023-11-19T07:16:11;11.30;99.90
47921;DHT22;33686;48.770;9.186;2023-11-19T07:18:39;11.30;99.90
47921;DHT22;33686;48.770;9.186;2023-11-19T07:21:04;11.40;99.90
47921;DHT22;33686;48.770;9.186;2023-11-19T07:23:30;11.40;99.90
47921;DHT22;33686;48.770;9.186;2023-11-19T07:25:56;11.40;99.90
47921;DHT22;33686;48.770;9.186;2023-11-19T07:28:22;11.60;99.90
47921;DHT22;33686;48.770;9.186;2023-11-19T07:30:48;11.60;99.90
47921;DHT22;33686;48.770;9.186;2023-11-19T07:33:13;11.60;99.90
47921;DHT22;33686;48.770;9.186;2023-11-19T07:35:39;11.70;99.90
47921;DHT22;33686;48.770;9.186;2023-11-19T07:38:06;11.80;99.90
47921;DHT22;33686;48.770;9.186;2023-11-19T07:40:32;11.90;99.90
47921;DHT22;33686;48.770;9.186;2023-11-19T07:42:57;11.90;99.90
47921;DHT22;33686;48.770;9.186;2023-11-19T07:45:23;11.90;99.90
47921;DHT22;33686;48.770;9.186;2023-11-19T07:47:48;11.90;99.90
47921;DHT22;33686;48.770;9.186;2023-11-19T07:50:16;11.90;99.90
47921;DHT22;33686;48.770;9.186;2023-11-19T07:52:44;11.80;99.90
47921;DHT22;33686;48.770;9.186;2023-11-19T07:55:10;11.90;99.90
47921;DHT22;33686;48.770;9.186;2023-11-19T07:57:35;11.80;99.90
47921;DHT22;33686;48.770;9.186;2023-11-19T08:00:02;11.90;99.90
47921;DHT22;33686;48.770;9.186;2023-11-19T08:02:38;11.90;99.90
47921;DHT22;33686;48.770;9.186;2023-11-19T08:05:04;11.90;99.90
47921;DHT22;33686;48.770;9.186;2023-11-19T08:07:29;11.90;99.90
47921;DHT22;33686;48.770;9.186;2023-11-19T08:09:55;11.90;99.90
47921;DHT22;33686;48.770;9.186;2023-11-19T08:12:20;12.00;99.90
47921;DHT22;33686;48.770;9.186;2023-11-19T08:14:46;12.00;99.90
47921;DHT22;33686;48.770;9.186;2023-11-19T08:17:11;12.10;99.90
47921;DHT22;33686;48.770;9.186;2023-11-19T08:19:37;12.20;99.90
47921;DHT22;33686;48.770;9.186;2023-11-19T08:22:02;12.40;99.90
47921;DHT22;33686;48.770;9.186;2023-11-19T08:24:28;12.40;99.90
47921;DHT22;33686;48.770;9.186;2023-11-19T08:26:53;12.30;99.90
47921;DHT22;33686;48.770;9.186;2023-11-19T08:29:19;12.40;99.90
47921;DHT22;33686;48.770;9.186;2023-11-19T08:31:45;13.00;99.90
47921;DHT22;33686;48.770;9.186;2023-11-19T08:34:11;12.80;99.90
47921;DHT22;33686;48.770;9.186;2023-11-19T08:36:36;12.70;99.90
47921;DHT22;33686;48.770;9.186;2023-11-19T08:39:02;14.00;99.90
47921;DHT22;33686;48.770;9.186;2023-11-19T08:41:28;15.70;99.90
47921;DHT22;33686;48.770;9.186;2023-11-19T08:43:53;15.80;99.90
47921;DHT22;33686;48.770;9.186;2023-11-19T08:46:19;15.50;99.90
47921;DHT22;33686;48.770;9.186;2023-11-19T08:48:45;14.70;99.90
47921;DHT22;33686;48.770;9.186;2023-11-19T08:51:12;14.30;99.90
47921;DHT22;33686;48.770;9.186;2023-11-19T08:53:38;14.00;99.90
47921;DHT22;33686;48.770;9.186;2023-11-19T08:56:03;13.70;99.90
47921;DHT22;33686;48.770;9.186;2023-11-19T08:58:29;13.50;99.90
47921;DHT22;33686;48.770;9.186;2023-11-19T09:00:56;13.30;99.90
47921;DHT22;33686;48.770;9.186;2023-11-19T09:03:21;13.20;99.90
47921;DHT22;33686;48.770;9.186;2023-11-19T09:05:47;13.10;99.90
47921;DHT22;33686;48.770;9.186;2023-11-19T09:08:12;13.40;99.90
47921;DHT22;33686;48.770;9.186;2023-11-19T09:10:38;13.60;99.90
47921;DHT22;33686;48.770;9.186;2023-11-19T09:13:03;14.00;99.90
47921;DHT22;33686;48.770;9.186;2023-11-19T09:15:29;14.10;99.90
47921;DHT22;33686;48.770;9.186;2023-11-19T09:17:55;14.30;99.90
47921;DHT22;33686;48.770;9.186;2023-11-19T09:20:20;14.40;99.90
47921;DHT22;33686;48.770;9.186;2023-11-19T09:22:46;14.20;99.90
47921;DHT22;33686;48.770;9.186;2023-11-19T09:25:11;14.00;99.90
47921;DHT22;33686;48.770;9.186;2023-11-19T09:27:37;13.80;99.90
47921;DHT22;33686;48.770;9.186;2023-11-19T09:30:03;13.80;99.90
47921;DHT22;33686;48.770;9.186;2023-11-19T09:32:29;13.70;99.90
47921;DHT22;33686;48.770;9.186;2023-11-19T09:34:54;13.70;99.90
47921;DHT22;33686;48.770;9.186;2023-11-19T09:37:20;13.80;99.90
47921;DHT22;33686;48.770;9.186;2023-11-19T09:39:45;14.00;99.90
47921;DHT22;33686;48.770;9.186;2023-11-19T09:42:11;14.20;99.90
47921;DHT22;33686;48.770;9.186;2023-11-19T09:44:37;14.30;99.90
47921;DHT22;33686;48.770;9.186;2023-11-19T09:47:04;14.30;99.90
47921;DHT22;33686;48.770;9.186;2023-11-19T09:49:29;14.30;99.90
47921;DHT22;33686;48.770;9.186;2023-11-19T09:51:55;14.30;99.90
47921;DHT22;33686;48.770;9.186;2023-11-19T09:54:21;14.20;99.90
47921;DHT22;33686;48.770;9.186;2023-11-19T09:56:46;14.20;99.90
47921;DHT22;33686;48.770;9.186;2023-11-19T09:59:13;14.20;99.90
47921;DHT22;33686;48.770;9.186;2023-11-19T10:01:38;14.30;99.90
47921;DHT22;33686;48.770;9.186;2023-11-19T10:04:04;14.40;99.90
47921;DHT22;33686;48.770;9.186;2023-11-19T10:06:31;14.50;99.90
47921;DHT22;33686;48.770;9.186;2023-11-19T10:08:57;14.60;99.90
47921;DHT22;33686;48.770;9.186;2023-11-19T10:11:22;14.70;99.90
47921;DHT22;33686;48.770;9.186;2023-11-19T10:13:48;14.60;99.90
47921;DHT22;33686;48.770;9.186;2023-11-19T10:16:14;14.60;99.90
47921;DHT22;33686;48.770;9.186;2023-11-19T10:18:46;14.60;99.90
47921;DHT22;33686;48.770;9.186;2023-11-19T10:21:13;14.70;99.90
47921;DHT22;33686;48.770;9.186;2023-11-19T10:23:52;14.80;99.90
47921;DHT22;33686;48.770;9.186;2023-11-19T10:26:19;14.90;99.90
47921;DHT22;33686;48.770;9.186;2023-11-19T10:28:48;15.00;99.90
47921;DHT22;33686;48.770;9.186;2023-11-19T10:31:17;14.90;99.90
47921;DHT22;33686;48.770;9.186;2023-11-19T10:33:43;14.90;99.90
47921;DHT22;33686;48.770;9.186;2023-11-19T10:36:11;14.90;99.90
47921;DHT22;33686;48.770;9.186;2023-11-19T10:38:37;14.90;99.90
47921;DHT22;33686;48.770;9.186;2023-11-19T10:41:03;14.90;99.90
47921;DHT22;33686;48.770;9.186;2023-11-19T10:43:30;14.90;99.90
47921;DHT22;33686;48.770;9.186;2023-11-19T10:46:12;15.00;99.90
47921;DHT22;33686;48.770;9.186;2023-11-19T10:48:38;15.00;99.90
47921;DHT22;33686;48.770;9.186;2023-11-19T10:51:04;15.00;99.90
47921;DHT22;33686;48.770;9.186;2023-11-19T10:53:30;15.00;99.90
47921;DHT22;33686;48.770;9.186;2023-11-19T10:55:57;15.10;99.90
47921;DHT22;33686;48.770;9.186;2023-11-19T10:58:23;15.20;99.90
47921;DHT22;33686;48.770;9.186;2023-11-19T11:00:51;15.30;99.90
47921;DHT22;33686;48.770;9.186;2023-11-19T11:03:18;15.40;99.90
47921;DHT22;33686;48.770;9.186;2023-11-19T11:05:47;15.40;99.90
47921;DHT22;33686;48.770;9.186;2023-11-19T11:08:13;15.50;99.90
47921;DHT22;33686;48.770;9.186;2023-11-19T11:10:39;15.50;99.90
47921;DHT22;33686;48.770;9.186;2023-11-19T11:13:07;15.50;99.90
47921;DHT22;33686;48.770;9.186;2023-11-19T11:15:33;15.50;99.90
47921;DHT22;33686;48.770;9.186;2023-11-19T11:18:00;15.40;99.90
47921;DHT22;33686;48.770;9.186;2023-11-19T11:20:33;15.50;99.90
47921;DHT22;33686;48.770;9.186;2023-11-19T11:25:47;15.20;99.90
47921;DHT22;33686;48.770;9.186;2023-11-19T11:28:29;15.20;99.90
47921;DHT22;33686;48.770;9.186;2023-11-19T11:31:09;15.20;99.90
47921;DHT22;33686;48.770;9.186;2023-11-19T11:38:30;15.10;99.90
47921;DHT22;33686;48.770;9.186;2023-11-19T11:41:18;15.00;99.90
47921;DHT22;33686;48.770;9.186;2023-11-19T11:43:47;14.90;99.90
47921;DHT22;33686;48.770;9.186;2023-11-19T11:49:01;14.80;99.90
47921;DHT22;33686;48.770;9.186;2023-11-19T11:54:08;15.00;99.90
47921;DHT22;33686;48.770;9.186;2023-11-19T11:56:36;15.10;99.90
47921;DHT22;33686;48.770;9.186;2023-11-19T11:59:02;15.20;99.90
47921;DHT22;33686;48.770;9.186;2023-11-19T12:01:27;15.30;99.90
47921;DHT22;33686;48.770;9.186;2023-11-19T12:03:55;15.50;99.90
47921;DHT22;33686;48.770;9.186;2023-11-19T12:06:21;15.60;99.90
47921;DHT22;33686;48.770;9.186;2023-11-19T12:08:47;15.60;99.90
47921;DHT22;33686;48.770;9.186;2023-11-19T12:11:12;15.60;99.90
47921;DHT22;33686;48.770;9.186;2023-11-19T12:13:48;15.60;99.90
47921;DHT22;33686;48.770;9.186;2023-11-19T12:16:18;15.70;99.90
47921;DHT22;33686;48.770;9.186;2023-11-19T12:18:43;15.90;99.90
47921;DHT22;33686;48.770;9.186;2023-11-19T12:21:10;15.90;99.90
47921;DHT22;33686;48.770;9.186;2023-11-19T12:23:36;15.90;99.90
47921;DHT22;33686;48.770;9.186;2023-11-19T12:26:09;15.90;99.90
47921;DHT22;33686;48.770;9.186;2023-11-19T12:28:56;15.70;99.90
47921;DHT22;33686;48.770;9.186;2023-11-19T12:31:22;15.80;99.90
47921;DHT22;33686;48.770;9.186;2023-11-19T12:33:47;15.80;99.90
47921;DHT22;33686;48.770;9.186;2023-11-19T12:36:13;15.70;99.90
47921;DHT22;33686;48.770;9.186;2023-11-19T12:38:38;15.60;99.90
47921;DHT22;33686;48.770;9.186;2023-11-19T12:41:04;15.60;99.90
47921;DHT22;33686;48.770;9.186;2023-11-19T12:43:30;15.60;99.90
47921;DHT22;33686;48.770;9.186;2023-11-19T12:45:56;15.60;99.90
47921;DHT22;33686;48.770;9.186;2023-11-19T12:48:21;15.40;99.90
47921;DHT22;33686;48.770;9.186;2023-11-19T12:53:16;15.40;99.90
47921;DHT22;33686;48.770;9.186;2023-11-19T12:55:41;15.30;99.90
47921;DHT22;33686;48.770;9.186;2023-11-19T12:58:07;15.40;99.90
47921;DHT22;33686;48.770;9.186;2023-11-19T13:00:32;15.30;99.90
47921;DHT22;33686;48.770;9.186;2023-11-19T13:02:58;15.30;99.90
47921;DHT22;33686;48.770;9.186;2023-11-19T13:05:31;15.30;99.90
47921;DHT22;33686;48.770;9.186;2023-11-19T13:08:04;15.30;99.90
47921;DHT22;33686;48.770;9.186;2023-11-19T13:10:34;15.40;99.90
47921;DHT22;33686;48.770;9.186;2023-11-19T13:13:15;15.30;99.90
47921;DHT22;33686;48.770;9.186;2023-11-19T13:15:40;15.30;99.90
47921;DHT22;33686;48.770;9.186;2023-11-19T13:18:06;15.30;99.90
47921;DHT22;33686;48.770;9.186;2023-11-19T13:20:32;15.40;99.90
47921;DHT22;33686;48.770;9.186;2023-11-19T13:22:58;15.40;99.90
47921;DHT22;33686;48.770;9.186;2023-11-19T13:25:25;15.40;99.90
47921;DHT22;33686;48.770;9.186;2023-11-19T13:27:51;15.30;99.90
47921;DHT22;33686;48.770;9.186;2023-11-19T13:30:16;15.40;99.90
47921;DHT22;33686;48.770;9.186;2023-11-19T13:32:42;15.30;99.90
47921;DHT22;33686;48.770;9.186;2023-11-19T13:35:09;15.30;99.90
47921;DHT22;33686;48.770;9.186;2023-11-19T13:37:34;15.20;99.90
47921;DHT22;33686;48.770;9.186;2023-11-19T13:40:00;15.20;99.90
47921;DHT22;33686;48.770;9.186;2023-11-19T13:42:25;15.10;99.90
47921;DHT22;33686;48.770;9.186;2023-11-19T13:44:51;15.10;99.90
47921;DHT22;33686;48.770;9.186;2023-11-19T13:47:17;15.00;99.90
47921;DHT22;33686;48.770;9.186;2023-11-19T13:49:44;14.90;99.90
47921;DHT22;33686;48.770;9.186;2023-11-19T13:52:09;14.90;99.90
47921;DHT22;33686;48.770;9.186;2023-11-19T13:54:36;14.90;99.90
47921;DHT22;33686;48.770;9.186;2023-11-19T13:57:01;14.80;99.90
47921;DHT22;33686;48.770;9.186;2023-11-19T13:59:30;14.80;99.90
47921;DHT22;33686;48.770;9.186;2023-11-19T14:01:56;14.80;99.90
47921;DHT22;33686;48.770;9.186;2023-11-19T14:04:22;14.80;99.90
47921;DHT22;33686;48.770;9.186;2023-11-19T14:06:47;14.80;99.90
47921;DHT22;33686;48.770;9.186;2023-11-19T14:09:13;14.70;99.90
47921;DHT22;33686;48.770;9.186;2023-11-19T14:11:38;14.60;99.90
47921;DHT22;33686;48.770;9.186;2023-11-19T14:14:04;14.50;99.90
47921;DHT22;33686;48.770;9.186;2023-11-19T14:16:29;14.40;99.90
47921;DHT22;33686;48.770;9.186;2023-11-19T14:18:55;14.40;99.90
47921;DHT22;33686;48.770;9.186;2023-11-19T14:21:21;14.40;99.90
47921;DHT22;33686;48.770;9.186;2023-11-19T14:23:46;14.40;99.90
47921;DHT22;33686;48.770;9.186;2023-11-19T14:26:12;14.30;99.90
47921;DHT22;33686;48.770;9.186;2023-11-19T14:28:37;14.30;99.90
47921;DHT22;33686;48.770;9.186;2023-11-19T14:31:03;14.40;99.90
47921;DHT22;33686;48.770;9.186;2023-11-19T14:33:29;14.40;99.90
47921;DHT22;33686;48.770;9.186;2023-11-19T14:35:55;14.30;99.90
47921;DHT22;33686;48.770;9.186;2023-11-19T14:38:20;14.40;99.90
47921;DHT22;33686;48.770;9.186;2023-11-19T14:40:46;14.30;99.90
47921;DHT22;33686;48.770;9.186;2023-11-19T14:43:11;14.30;99.90
47921;DHT22;33686;48.770;9.186;2023-11-19T14:45:37;14.20;99.90
47921;DHT22;33686;48.770;9.186;2023-11-19T14:48:03;14.20;99.90
47921;DHT22;33686;48.770;9.186;2023-11-19T14:50:29;14.10;99.90
47921;DHT22;33686;48.770;9.186;2023-11-19T14:52:54;14.10;99.90
47921;DHT22;33686;48.770;9.186;2023-11-19T14:55:20;14.00;99.90
47921;DHT22;33686;48.770;9.186;2023-11-19T14:57:45;14.00;99.90
47921;DHT22;33686;48.770;9.186;2023-11-19T15:00:11;13.90;99.90
47921;DHT22;33686;48.770;9.186;2023-11-19T15:02:40;13.90;99.90
47921;DHT22;33686;48.770;9.186;2023-11-19T15:05:07;13.80;99.90
47921;DHT22;33686;48.770;9.186;2023-11-19T15:07:35;13.80;99.90
47921;DHT22;33686;48.770;9.186;2023-11-19T15:10:01;13.70;99.90
47921;DHT22;33686;48.770;9.186;2023-11-19T15:12:27;13.70;99.90
47921;DHT22;33686;48.770;9.186;2023-11-19T15:14:53;13.70;99.90
47921;DHT22;33686;48.770;9.186;2023-11-19T15:17:18;13.60;99.90
47921;DHT22;33686;48.770;9.186;2023-11-19T15:19:44;13.70;99.90
47921;DHT22;33686;48.770;9.186;2023-11-19T15:22:11;13.70;99.90
47921;DHT22;33686;48.770;9.186;2023-11-19T15:24:37;13.60;99.90
47921;DHT22;33686;48.770;9.186;2023-11-19T15:27:05;13.50;99.90
47921;DHT22;33686;48.770;9.186;2023-11-19T15:29:30;13.50;99.90
47921;DHT22;33686;48.770;9.186;2023-11-19T15:31:58;13.40;99.90
47921;DHT22;33686;48.770;9.186;2023-11-19T15:34:24;13.50;99.90
47921;DHT22;33686;48.770;9.186;2023-11-19T15:36:50;13.40;99.90
47921;DHT22;33686;48.770;9.186;2023-11-19T15:39:16;13.30;99.90
47921;DHT22;33686;48.770;9.186;2023-11-19T15:41:41;13.20;99.90
47921;DHT22;33686;48.770;9.186;2023-11-19T15:44:07;13.20;99.90
47921;DHT22;33686;48.770;9.186;2023-11-19T15:46:33;13.30;99.90
47921;DHT22;33686;48.770;9.186;2023-11-19T15:48:58;13.20;99.90
47921;DHT22;33686;48.770;9.186;2023-11-19T15:51:24;13.10;99.90
47921;DHT22;33686;48.770;9.186;2023-11-19T15:53:50;13.10;99.90
47921;DHT22;33686;48.770;9.186;2023-11-19T15:56:15;13.10;99.90
47921;DHT22;33686;48.770;9.186;2023-11-19T15:58:41;13.10;99.90
47921;DHT22;33686;48.770;9.186;2023-11-19T16:01:07;13.00;99.90
47921;DHT22;33686;48.770;9.186;2023-11-19T16:03:33;13.00;99.90
47921;DHT22;33686;48.770;9.186;2023-11-19T16:05:59;13.00;99.90
47921;DHT22;33686;48.770;9.186;2023-11-19T16:08:24;12.90;99.90
47921;DHT22;33686;48.770;9.186;2023-11-19T16:10:50;12.80;99.90
47921;DHT22;33686;48.770;9.186;2023-11-19T16:13:16;12.80;99.90
47921;DHT22;33686;48.770;9.186;2023-11-19T16:15:42;12.70;99.90
47921;DHT22;33686;48.770;9.186;2023-11-19T16:18:07;12.70;99.90
47921;DHT22;33686;48.770;9.186;2023-11-19T16:20:35;12.70;99.90
47921;DHT22;33686;48.770;9.186;2023-11-19T16:23:01;12.70;99.90
47921;DHT22;33686;48.770;9.186;2023-11-19T16:25:27;12.60;99.90
47921;DHT22;33686;48.770;9.186;2023-11-19T16:27:52;12.50;99.90
47921;DHT22;33686;48.770;9.186;2023-11-19T16:30:18;12.50;99.90
47921;DHT22;33686;48.770;9.186;2023-11-19T16:32:52;12.40;99.90
47921;DHT22;33686;48.770;9.186;2023-11-19T16:35:21;12.20;99.90
47921;DHT22;33686;48.770;9.186;2023-11-19T16:37:47;12.20;99.90
47921;DHT22;33686;48.770;9.186;2023-11-19T16:40:13;12.20;99.90
47921;DHT22;33686;48.770;9.186;2023-11-19T16:42:38;12.20;99.90
47921;DHT22;33686;48.770;9.186;2023-11-19T16:45:05;12.10;99.90
47921;DHT22;33686;48.770;9.186;2023-11-19T16:47:31;12.10;99.90
47921;DHT22;33686;48.770;9.186;2023-11-19T16:49:56;12.00;99.90
47921;DHT22;33686;48.770;9.186;2023-11-19T16:52:22;12.10;99.90
47921;DHT22;33686;48.770;9.186;2023-11-19T16:54:48;12.10;99.90
47921;DHT22;33686;48.770;9.186;2023-11-19T16:57:13;12.00;99.90
47921;DHT22;33686;48.770;9.186;2023-11-19T16:59:39;12.10;99.90
47921;DHT22;33686;48.770;9.186;2023-11-19T17:02:05;12.00;99.90
47921;DHT22;33686;48.770;9.186;2023-11-19T17:04:30;12.00;99.90
47921;DHT22;33686;48.770;9.186;2023-11-19T17:06:56;12.00;99.90
47921;DHT22;33686;48.770;9.186;2023-11-19T17:09:22;12.00;99.90
47921;DHT22;33686;48.770;9.186;2023-11-19T17:11:48;11.90;99.90
47921;DHT22;33686;48.770;9.186;2023-11-19T17:14:14;11.80;99.90
47921;DHT22;33686;48.770;9.186;2023-11-19T17:16:40;11.90;99.90
47921;DHT22;33686;48.770;9.186;2023-11-19T17:19:05;11.80;99.90
47921;DHT22;33686;48.770;9.186;2023-11-19T17:21:31;11.80;99.90
47921;DHT22;33686;48.770;9.186;2023-11-19T17:23:58;11.70;99.90
47921;DHT22;33686;48.770;9.186;2023-11-19T17:26:24;11.70;99.90
47921;DHT22;33686;48.770;9.186;2023-11-19T17:28:49;11.70;99.90
47921;DHT22;33686;48.770;9.186;2023-11-19T17:31:15;11.70;99.90
47921;DHT22;33686;48.770;9.186;2023-11-19T17:33:42;11.70;99.90
47921;DHT22;33686;48.770;9.186;2023-11-19T17:36:08;11.60;99.90
47921;DHT22;33686;48.770;9.186;2023-11-19T17:38:33;11.70;99.90
47921;DHT22;33686;48.770;9.186;2023-11-19T17:40:59;11.70;99.90
47921;DHT22;33686;48.770;9.186;2023-11-19T17:43:24;11.70;99.90
47921;DHT22;33686;48.770;9.186;2023-11-19T17:45:50;11.70;99.90
47921;DHT22;33686;48.770;9.186;2023-11-19T17:48:16;11.70;99.90
47921;DHT22;33686;48.770;9.186;2023-11-19T17:50:43;11.70;99.90
47921;DHT22;33686;48.770;9.186;2023-11-19T17:53:08;11.80;99.90
47921;DHT22;33686;48.770;9.186;2023-11-19T17:55:37;11.80;99.90
47921;DHT22;33686;48.770;9.186;2023-11-19T17:58:04;11.90;99.90
47921;DHT22;33686;48.770;9.186;2023-11-19T18:00:30;11.90;99.90
47921;DHT22;33686;48.770;9.186;2023-11-19T18:02:55;11.90;99.90
47921;DHT22;33686;48.770;9.186;2023-11-19T18:05:21;11.80;99.90
47921;DHT22;33686;48.770;9.186;2023-11-19T18:07:46;11.90;99.90
47921;DHT22;33686;48.770;9.186;2023-11-19T18:10:12;11.90;99.90
47921;DHT22;33686;48.770;9.186;2023-11-19T18:12:38;12.00;99.90
47921;DHT22;33686;48.770;9.186;2023-11-19T18:15:04;11.90;99.90
47921;DHT22;33686;48.770;9.186;2023-11-19T18:17:30;11.90;99.90
47921;DHT22;33686;48.770;9.186;2023-11-19T18:19:55;11.90;99.90
47921;DHT22;33686;48.770;9.186;2023-11-19T18:22:21;11.80;99.90
47921;DHT22;33686;48.770;9.186;2023-11-19T18:24:47;11.80;99.90
47921;DHT22;33686;48.770;9.186;2023-11-19T18:27:13;11.90;99.90
47921;DHT22;33686;48.770;9.186;2023-11-19T18:32:05;11.80;99.90
47921;DHT22;33686;48.770;9.186;2023-11-19T18:34:35;11.80;99.90
47921;DHT22;33686;48.770;9.186;2023-11-19T18:37:01;11.90;99.90
47921;DHT22;33686;48.770;9.186;2023-11-19T18:39:27;11.80;99.90
47921;DHT22;33686;48.770;9.186;2023-11-19T18:41:52;11.80;99.90
47921;DHT22;33686;48.770;9.186;2023-11-19T18:44:18;11.80;99.90
47921;DHT22;33686;48.770;9.186;2023-11-19T18:46:44;11.80;99.90
47921;DHT22;33686;48.770;9.186;2023-11-19T18:49:09;11.90;99.90
47921;DHT22;33686;48.770;9.186;2023-11-19T18:51:35;11.80;99.90
47921;DHT22;33686;48.770;9.186;2023-11-19T18:54:01;11.80;99.90
47921;DHT22;33686;48.770;9.186;2023-11-19T18:56:28;11.80;99.90
47921;DHT22;33686;48.770;9.186;2023-11-19T18:58:54;11.70;99.90
47921;DHT22;33686;48.770;9.186;2023-11-19T19:01:19;11.60;99.90
47921;DHT22;33686;48.770;9.186;2023-11-19T19:03:46;11.60;99.90
47921;DHT22;33686;48.770;9.186;2023-11-19T19:06:11;11.60;99.90
47921;DHT22;33686;48.770;9.186;2023-11-19T19:08:37;11.50;99.90
47921;DHT22;33686;48.770;9.186;2023-11-19T19:11:05;11.60;99.90
47921;DHT22;33686;48.770;9.186;2023-11-19T19:13:30;11.70;99.90
47921;DHT22;33686;48.770;9.186;2023-11-19T19:15:56;11.70;99.90
47921;DHT22;33686;48.770;9.186;2023-11-19T19:18:22;11.60;99.90
47921;DHT22;33686;48.770;9.186;2023-11-19T19:20:49;11.60;99.90
47921;DHT22;33686;48.770;9.186;2023-11-19T19:23:14;11.70;99.90
47921;DHT22;33686;48.770;9.186;2023-11-19T19:25:40;11.70;99.90
47921;DHT22;33686;48.770;9.186;2023-11-19T19:28:05;11.70;99.90
47921;DHT22;33686;48.770;9.186;2023-11-19T19:30:32;11.70;99.90
47921;DHT22;33686;48.770;9.186;2023-11-19T19:32:58;11.70;99.90
47921;DHT22;33686;48.770;9.186;2023-11-19T19:35:24;11.70;99.90
47921;DHT22;33686;48.770;9.186;2023-11-19T19:37:58;11.70;99.90
47921;DHT22;33686;48.770;9.186;2023-11-19T19:40:27;11.90;99.90
47921;DHT22;33686;48.770;9.186;2023-11-19T19:42:52;11.90;99.90
47921;DHT22;33686;48.770;9.186;2023-11-19T19:45:19;12.00;99.90
47921;DHT22;33686;48.770;9.186;2023-11-19T19:47:44;12.00;99.90
47921;DHT22;33686;48.770;9.186;2023-11-19T19:50:10;11.90;99.90
47921;DHT22;33686;48.770;9.186;2023-11-19T19:52:39;11.80;99.90
47921;DHT22;33686;48.770;9.186;2023-11-19T19:55:08;11.80;99.90
47921;DHT22;33686;48.770;9.186;2023-11-19T19:57:34;11.70;99.90
47921;DHT22;33686;48.770;9.186;2023-11-19T20:00:03;11.70;99.90
47921;DHT22;33686;48.770;9.186;2023-11-19T20:02:36;11.70;99.90
47921;DHT22;33686;48.770;9.186;2023-11-19T20:05:02;11.70;99.90
47921;DHT22;33686;48.770;9.186;2023-11-19T20:07:29;11.60;99.90
47921;DHT22;33686;48.770;9.186;2023-11-19T20:09:55;11.60;99.90
47921;DHT22;33686;48.770;9.186;2023-11-19T20:12:20;11.50;99.90
47921;DHT22;33686;48.770;9.186;2023-11-19T20:14:46;11.50;99.90
47921;DHT22;33686;48.770;9.186;2023-11-19T20:17:11;11.30;99.90
47921;DHT22;33686;48.770;9.186;2023-11-19T20:19:37;11.30;99.90
47921;DHT22;33686;48.770;9.186;2023-11-19T20:22:03;11.20;99.90
47921;DHT22;33686;48.770;9.186;2023-11-19T20:24:29;11.20;99.90
47921;DHT22;33686;48.770;9.186;2023-11-19T20:26:55;11.20;99.90
47921;DHT22;33686;48.770;9.186;2023-11-19T20:29:20;11.10;99.90
47921;DHT22;33686;48.770;9.186;2023-11-19T20:31:46;11.10;99.90
47921;DHT22;33686;48.770;9.186;2023-11-19T20:34:11;11.10;99.90
47921;DHT22;33686;48.770;9.186;2023-11-19T20:36:37;11.10;99.90
47921;DHT22;33686;48.770;9.186;2023-11-19T20:39:03;11.10;99.90
47921;DHT22;33686;48.770;9.186;2023-11-19T20:41:29;11.00;99.90
47921;DHT22;33686;48.770;9.186;2023-11-19T20:43:55;11.00;99.90
47921;DHT22;33686;48.770;9.186;2023-11-19T20:46:21;11.00;99.90
47921;DHT22;33686;48.770;9.186;2023-11-19T20:48:47;11.10;99.90
47921;DHT22;33686;48.770;9.186;2023-11-19T20:51:14;11.00;99.90
47921;DHT22;33686;48.770;9.186;2023-11-19T20:53:40;11.10;99.90
47921;DHT22;33686;48.770;9.186;2023-11-19T20:56:06;11.10;99.90
47921;DHT22;33686;48.770;9.186;2023-11-19T20:58:31;11.10;99.90
47921;DHT22;33686;48.770;9.186;2023-11-19T21:00:59;11.10;99.90
47921;DHT22;33686;48.770;9.186;2023-11-19T21:03:25;11.00;99.90
47921;DHT22;33686;48.770;9.186;2023-11-19T21:05:51;11.00;99.90
47921;DHT22;33686;48.770;9.186;2023-11-19T21:08:22;11.00;99.90
47921;DHT22;33686;48.770;9.186;2023-11-19T21:10:48;11.00;99.90
47921;DHT22;33686;48.770;9.186;2023-11-19T21:13:17;10.90;99.90
47921;DHT22;33686;48.770;9.186;2023-11-19T21:15:43;10.80;99.90
47921;DHT22;33686;48.770;9.186;2023-11-19T21:18:12;10.80;99.90
47921;DHT22;33686;48.770;9.186;2023-11-19T21:20:37;10.80;99.90
47921;DHT22;33686;48.770;9.186;2023-11-19T21:23:04;10.80;99.90
47921;DHT22;33686;48.770;9.186;2023-11-19T21:25:30;10.80;99.90
47921;DHT22;33686;48.770;9.186;2023-11-19T21:27:58;10.80;99.90
47921;DHT22;33686;48.770;9.186;2023-11-19T21:30:23;10.80;99.90
47921;DHT22;33686;48.770;9.186;2023-11-19T21:32:49;10.70;99.90
47921;DHT22;33686;48.770;9.186;2023-11-19T21:35:16;10.70;99.90
47921;DHT22;33686;48.770;9.186;2023-11-19T21:37:42;10.80;99.90
47921;DHT22;33686;48.770;9.186;2023-11-19T21:40:07;10.80;99.90
47921;DHT22;33686;48.770;9.186;2023-11-19T21:42:35;10.90;99.90
47921;DHT22;33686;48.770;9.186;2023-11-19T21:45:00;10.80;99.90
47921;DHT22;33686;48.770;9.186;2023-11-19T21:47:27;10.80;99.90
47921;DHT22;33686;48.770;9.186;2023-11-19T21:49:53;10.80;99.90
47921;DHT22;33686;48.770;9.186;2023-11-19T21:52:18;10.80;99.90
47921;DHT22;33686;48.770;9.186;2023-11-19T21:54:44;10.90;99.90
47921;DHT22;33686;48.770;9.186;2023-11-19T21:57:09;10.90;99.90
47921;DHT22;33686;48.770;9.186;2023-11-19T21:59:35;11.00;99.90
47921;DHT22;33686;48.770;9.186;2023-11-19T22:02:01;10.90;99.90